createdAt,value
2018-09-11T00:00:45.040Z,44.70
2018-09-11T00:03:13.450Z,44.80
2018-09-11T00:05:41.626Z,44.80
2018-09-11T00:08:09.722Z,44.80
2018-09-11T00:10:37.849Z,44.80
2018-09-11T00:13:06.064Z,44.80
2018-09-11T00:15:34.224Z,44.60
2018-09-11T00:18:02.413Z,44.10
2018-09-11T00:20:30.540Z,44.80
2018-09-11T00:22:58.652Z,44.80
2018-09-11T00:25:26.779Z,44.80
2018-09-11T00:27:54.900Z,44.70
2018-09-11T00:30:23.030Z,44.90
2018-09-11T00:32:51.148Z,44.90
2018-09-11T00:35:19.270Z,45.00
2018-09-11T00:37:47.416Z,45.00
2018-09-11T00:40:15.716Z,45.00
2018-09-11T00:42:43.895Z,44.80
2018-09-11T00:45:12.024Z,45.00
2018-09-11T00:47:40.119Z,45.00
2018-09-11T00:50:08.300Z,45.10
2018-09-11T00:52:36.370Z,45.20
2018-09-11T00:55:04.615Z,45.10
2018-09-11T00:57:32.695Z,45.20
2018-09-11T01:00:00.817Z,45.20
2018-09-11T01:02:28.909Z,45.30
2018-09-11T01:04:57.012Z,45.20
2018-09-11T01:07:25.130Z,45.20
2018-09-11T01:09:53.267Z,45.20
2018-09-11T01:12:21.415Z,45.20
2018-09-11T01:14:49.615Z,45.10
2018-09-11T01:17:17.692Z,45.10
2018-09-11T01:19:45.863Z,45.10
2018-09-11T01:22:14.024Z,45.20
2018-09-11T01:24:42.140Z,45.30
2018-09-11T01:27:10.254Z,45.30
2018-09-11T01:29:38.356Z,45.30
2018-09-11T01:32:06.540Z,45.30
2018-09-11T01:34:41.255Z,45.30
2018-09-11T01:37:09.421Z,45.30
2018-09-11T01:39:37.567Z,45.30
2018-09-11T01:42:05.749Z,45.40
2018-09-11T01:44:33.843Z,45.50
2018-09-11T01:47:01.984Z,45.30
2018-09-11T01:49:30.084Z,45.50
2018-09-11T01:51:58.257Z,45.30
2018-09-11T01:54:26.378Z,45.40
2018-09-11T01:56:54.504Z,45.40
2018-09-11T01:59:23.503Z,45.40
2018-09-11T02:01:51.595Z,46.20
2018-09-11T02:04:19.744Z,45.50
2018-09-11T02:06:47.900Z,45.60
2018-09-11T02:09:15.997Z,45.60
2018-09-11T02:11:44.114Z,45.60
2018-09-11T02:14:12.234Z,45.70
2018-09-11T02:16:40.375Z,45.70
2018-09-11T02:19:08.451Z,45.60
2018-09-11T02:21:36.576Z,45.50
2018-09-11T02:24:04.682Z,45.50
2018-09-11T02:26:32.856Z,45.40
2018-09-11T02:29:00.990Z,45.40
2018-09-11T02:31:29.090Z,45.50
2018-09-11T02:33:57.205Z,45.50
2018-09-11T02:36:25.312Z,45.50
2018-09-11T02:38:53.451Z,45.60
2018-09-11T02:41:21.614Z,45.60
2018-09-11T02:43:49.763Z,45.60
2018-09-11T02:46:17.886Z,45.70
2018-09-11T02:48:46.061Z,45.70
2018-09-11T02:51:14.176Z,45.70
2018-09-11T02:53:42.303Z,45.70
2018-09-11T02:56:10.430Z,45.80
2018-09-11T02:58:38.550Z,45.70
2018-09-11T03:01:06.683Z,45.80
2018-09-11T03:03:34.825Z,45.70
2018-09-11T03:06:03.155Z,45.80
2018-09-11T03:08:31.276Z,46.00
2018-09-11T03:10:59.371Z,46.10
2018-09-11T03:13:27.500Z,46.20
2018-09-11T03:15:55.589Z,46.20
2018-09-11T03:18:23.716Z,46.30
2018-09-11T03:20:51.812Z,46.40
2018-09-11T03:23:19.912Z,46.20
2018-09-11T03:25:48.060Z,46.20
2018-09-11T03:28:16.217Z,46.10
2018-09-11T03:30:44.334Z,46.20
2018-09-11T03:33:12.504Z,46.20
2018-09-11T03:35:40.630Z,46.30
2018-09-11T03:38:08.772Z,46.40
2018-09-11T03:40:36.927Z,46.30
2018-09-11T03:43:05.076Z,46.40
2018-09-11T03:45:33.212Z,46.50
2018-09-11T03:48:01.331Z,46.50
2018-09-11T03:50:29.466Z,46.60
2018-09-11T03:52:57.615Z,46.70
2018-09-11T03:55:25.724Z,46.80
2018-09-11T03:57:53.871Z,46.70
2018-09-11T04:00:21.973Z,46.70
2018-09-11T04:02:50.109Z,46.90
2018-09-11T04:05:18.253Z,46.80
2018-09-11T04:07:46.358Z,46.60
2018-09-11T04:10:14.456Z,46.80
2018-09-11T04:12:42.555Z,46.90
2018-09-11T04:15:10.659Z,47.00
2018-09-11T04:17:41.102Z,47.00
2018-09-11T04:20:09.236Z,46.90
2018-09-11T04:22:38.396Z,46.90
2018-09-11T04:25:06.530Z,47.00
2018-09-11T04:27:34.868Z,47.00
2018-09-11T04:30:02.955Z,47.00
2018-09-11T04:32:31.073Z,46.90
2018-09-11T04:34:59.208Z,46.90
2018-09-11T04:37:27.368Z,47.00
2018-09-11T04:39:55.459Z,47.10
2018-09-11T04:42:23.634Z,47.20
2018-09-11T04:44:51.748Z,47.20
2018-09-11T04:47:19.872Z,47.20
2018-09-11T04:49:47.995Z,47.30
2018-09-11T04:52:16.111Z,47.40
2018-09-11T04:54:44.391Z,47.40
2018-09-11T04:57:12.512Z,47.40
2018-09-11T04:59:40.618Z,47.30
2018-09-11T05:02:08.728Z,47.50
2018-09-11T05:04:36.875Z,47.60
2018-09-11T05:07:05.168Z,47.50
2018-09-11T05:09:33.277Z,47.50
2018-09-11T05:12:01.438Z,47.60
2018-09-11T05:14:29.496Z,47.60
2018-09-11T05:16:57.635Z,47.50
2018-09-11T05:19:25.748Z,47.50
2018-09-11T05:21:53.881Z,47.60
2018-09-11T05:24:21.974Z,47.80
2018-09-11T05:26:50.106Z,47.80
2018-09-11T05:29:18.272Z,47.80
2018-09-11T05:31:46.348Z,47.80
2018-09-11T05:34:14.467Z,47.90
2018-09-11T05:36:42.556Z,47.80
2018-09-11T05:39:10.968Z,47.80
2018-09-11T05:41:38.987Z,48.00
2018-09-11T05:44:07.329Z,48.00
2018-09-11T05:46:35.579Z,48.10
2018-09-11T05:49:03.970Z,48.00
2018-09-11T05:51:32.108Z,48.00
2018-09-11T05:54:00.248Z,48.00
2018-09-11T05:56:28.363Z,47.90
2018-09-11T05:58:56.470Z,48.00
2018-09-11T06:01:24.568Z,48.00
2018-09-11T06:03:52.700Z,47.90
2018-09-11T06:06:20.798Z,47.90
2018-09-11T06:08:48.968Z,47.80
2018-09-11T06:11:17.068Z,47.80
2018-09-11T06:13:45.203Z,47.80
2018-09-11T06:16:13.346Z,48.40
2018-09-11T06:18:41.533Z,47.90
2018-09-11T06:21:09.696Z,47.90
2018-09-11T06:23:37.823Z,47.80
2018-09-11T06:26:05.929Z,48.00
2018-09-11T06:28:34.084Z,48.00
2018-09-11T06:31:02.183Z,48.00
2018-09-11T06:33:30.336Z,48.00
2018-09-11T06:36:00.508Z,48.00
2018-09-11T06:38:28.799Z,47.90
2018-09-11T06:40:56.921Z,47.90
2018-09-11T06:43:25.356Z,47.70
2018-09-11T06:45:53.540Z,47.70
2018-09-11T06:48:21.734Z,47.70
2018-09-11T06:50:49.891Z,47.70
2018-09-11T06:53:18.028Z,47.70
2018-09-11T06:55:46.260Z,47.70
2018-09-11T06:58:14.398Z,47.60
2018-09-11T07:00:42.678Z,47.70
2018-09-11T07:03:10.731Z,47.70
2018-09-11T07:05:38.854Z,47.70
2018-09-11T07:08:07.028Z,47.80
2018-09-11T07:10:35.158Z,47.90
2018-09-11T07:13:03.271Z,47.70
2018-09-11T07:15:31.411Z,47.70
2018-09-11T07:17:59.626Z,47.80
2018-09-11T07:20:27.827Z,47.90
2018-09-11T07:22:55.891Z,48.00
2018-09-11T07:25:24.047Z,47.80
2018-09-11T07:27:52.420Z,47.80
2018-09-11T07:30:20.573Z,47.80
2018-09-11T07:32:48.740Z,47.70
2018-09-11T07:35:17.135Z,47.70
2018-09-11T07:37:45.459Z,47.70
2018-09-11T07:40:13.583Z,47.90
2018-09-11T07:42:41.722Z,47.90
2018-09-11T07:45:09.831Z,48.10
2018-09-11T07:47:37.927Z,48.30
2018-09-11T07:50:06.357Z,48.00
2018-09-11T07:52:34.493Z,47.80
2018-09-11T07:55:02.620Z,47.60
2018-09-11T07:57:30.824Z,47.60
2018-09-11T07:59:59.046Z,47.70
2018-09-11T08:02:27.175Z,48.10
2018-09-11T08:04:55.390Z,48.40
2018-09-11T08:07:23.516Z,48.30
2018-09-11T08:09:51.634Z,48.30
2018-09-11T08:12:19.764Z,48.50
2018-09-11T08:14:47.884Z,48.50
2018-09-11T08:17:16.054Z,48.50
2018-09-11T08:19:44.201Z,48.50
2018-09-11T08:22:12.319Z,48.40
2018-09-11T08:24:40.452Z,48.50
2018-09-11T08:27:08.589Z,48.50
2018-09-11T08:29:36.728Z,48.40
2018-09-11T08:32:04.860Z,48.50
2018-09-11T08:34:33.055Z,48.50
2018-09-11T08:37:01.195Z,48.20
2018-09-11T08:39:29.287Z,48.10
2018-09-11T08:41:57.413Z,47.70
2018-09-11T08:44:25.517Z,47.20
2018-09-11T08:46:53.643Z,47.20
2018-09-11T08:49:21.773Z,47.20
2018-09-11T08:51:50.123Z,47.10
2018-09-11T08:54:18.268Z,47.10
2018-09-11T08:56:46.400Z,47.10
2018-09-11T08:59:14.528Z,47.20
2018-09-11T09:01:42.639Z,47.20
2018-09-11T09:04:10.763Z,47.20
2018-09-11T09:06:38.908Z,47.20
2018-09-11T09:09:08.783Z,47.20
2018-09-11T09:11:37.144Z,47.60
2018-09-11T09:14:05.337Z,47.50
2018-09-11T09:16:33.477Z,47.50
2018-09-11T09:19:01.607Z,47.40
2018-09-11T09:21:29.717Z,47.30
2018-09-11T09:23:57.852Z,47.00
2018-09-11T09:26:25.993Z,46.90
2018-09-11T09:28:54.114Z,46.80
2018-09-11T09:31:22.353Z,46.40
2018-09-11T09:33:50.467Z,46.40
2018-09-11T09:36:18.538Z,46.30
2018-09-11T09:38:46.755Z,46.10
2018-09-11T09:41:14.876Z,46.10
2018-09-11T09:43:42.996Z,46.20
2018-09-11T09:46:11.116Z,45.80
2018-09-11T09:48:39.226Z,45.40
2018-09-11T09:51:07.336Z,45.10
2018-09-11T09:53:35.428Z,44.80
2018-09-11T09:56:03.520Z,44.60
2018-09-11T09:58:31.646Z,44.60
2018-09-11T10:01:05.065Z,44.60
2018-09-11T10:03:33.181Z,44.10
2018-09-11T10:06:01.312Z,43.70
2018-09-11T10:08:29.431Z,43.60
2018-09-11T10:10:57.570Z,43.60
2018-09-11T10:13:25.696Z,43.40
2018-09-11T10:15:53.804Z,43.30
2018-09-11T10:18:21.926Z,43.40
2018-09-11T10:20:50.047Z,43.00
2018-09-11T10:23:18.169Z,42.70
2018-09-11T10:25:46.304Z,42.80
2018-09-11T10:28:14.416Z,42.90
2018-09-11T10:30:42.531Z,43.10
2018-09-11T10:33:10.622Z,43.00
2018-09-11T10:35:38.752Z,43.00
2018-09-11T10:38:07.024Z,42.90
2018-09-11T10:40:35.145Z,42.70
2018-09-11T10:43:03.257Z,43.00
2018-09-11T10:45:31.369Z,42.50
2018-09-11T10:47:59.523Z,42.20
2018-09-11T10:50:27.687Z,42.30
2018-09-11T10:52:55.814Z,42.60
2018-09-11T10:55:23.960Z,42.60
2018-09-11T10:57:52.048Z,42.60
2018-09-11T11:00:20.195Z,42.40
2018-09-11T11:02:48.355Z,42.10
2018-09-11T11:05:16.464Z,41.80
2018-09-11T11:07:44.588Z,41.30
2018-09-11T11:10:12.739Z,41.30
2018-09-11T11:12:40.844Z,40.60
2018-09-11T11:15:08.936Z,40.00
2018-09-11T11:17:37.063Z,39.80
2018-09-11T11:20:05.254Z,39.80
2018-09-11T11:22:33.401Z,40.60
2018-09-11T11:25:01.504Z,41.10
2018-09-11T11:27:29.631Z,41.50
2018-09-11T11:29:57.760Z,42.00
2018-09-11T11:32:25.859Z,42.40
2018-09-11T11:34:54.144Z,42.80
2018-09-11T11:37:22.375Z,43.00
2018-09-11T11:39:50.417Z,41.80
2018-09-11T11:42:18.607Z,41.10
2018-09-11T11:44:46.648Z,41.60
2018-09-11T11:47:14.724Z,42.00
2018-09-11T11:49:42.852Z,42.60
2018-09-11T11:52:11.007Z,43.00
2018-09-11T11:54:39.164Z,43.20
2018-09-11T11:57:07.236Z,43.90
2018-09-11T11:59:35.334Z,43.80
2018-09-11T12:02:03.539Z,44.10
2018-09-11T12:04:31.584Z,44.10
2018-09-11T12:06:59.699Z,44.30
2018-09-11T12:09:27.795Z,45.20
2018-09-11T12:11:55.944Z,44.70
2018-09-11T12:14:24.066Z,44.80
2018-09-11T12:16:52.263Z,45.00
2018-09-11T12:19:20.319Z,45.20
2018-09-11T12:21:48.412Z,45.30
2018-09-11T12:24:16.508Z,45.40
2018-09-11T12:26:44.685Z,45.30
2018-09-11T12:29:12.758Z,45.10
2018-09-11T12:31:40.891Z,44.90
2018-09-11T12:34:09.079Z,44.70
2018-09-11T12:36:37.182Z,44.60
2018-09-11T12:39:07.168Z,44.60
2018-09-11T12:41:35.266Z,44.30
2018-09-11T12:44:03.439Z,44.00
2018-09-11T12:46:31.981Z,43.80
2018-09-11T12:48:59.788Z,43.80
2018-09-11T12:51:27.972Z,44.10
2018-09-11T12:53:56.055Z,44.20
2018-09-11T12:56:24.207Z,44.30
2018-09-11T12:58:52.317Z,44.40
2018-09-11T13:01:20.437Z,44.40
2018-09-11T13:03:48.585Z,44.30
2018-09-11T13:06:16.752Z,44.40
2018-09-11T13:08:44.852Z,44.50
2018-09-11T13:11:12.974Z,44.50
2018-09-11T13:13:41.215Z,45.10
2018-09-11T13:16:09.636Z,44.40
2018-09-11T13:18:37.730Z,44.50
2018-09-11T13:21:05.916Z,44.60
2018-09-11T13:23:34.000Z,44.80
2018-09-11T13:26:02.127Z,44.80
2018-09-11T13:28:30.294Z,44.80
2018-09-11T13:30:58.425Z,45.00
2018-09-11T13:33:26.576Z,45.00
2018-09-11T13:35:54.681Z,45.20
2018-09-11T13:38:22.828Z,45.30
2018-09-11T13:40:50.937Z,45.40
2018-09-11T13:43:19.072Z,45.40
2018-09-11T13:45:47.180Z,45.50
2018-09-11T13:48:15.751Z,45.60
2018-09-11T13:50:43.887Z,45.60
2018-09-11T13:53:12.023Z,45.60
2018-09-11T13:55:40.136Z,45.70
2018-09-11T13:58:08.255Z,45.70
2018-09-11T14:00:36.352Z,45.80
2018-09-11T14:03:04.503Z,45.80
2018-09-11T14:05:32.724Z,45.80
2018-09-11T14:08:00.931Z,46.10
2018-09-11T14:10:29.040Z,46.20
2018-09-11T14:12:57.183Z,46.10
2018-09-11T14:15:25.297Z,46.20
2018-09-11T14:17:53.416Z,46.30
2018-09-11T14:20:21.532Z,46.30
2018-09-11T14:22:49.957Z,46.30
2018-09-11T14:25:18.056Z,46.30
2018-09-11T14:27:46.212Z,46.40
2018-09-11T14:30:14.378Z,46.40
2018-09-11T14:32:42.518Z,46.40
2018-09-11T14:35:10.628Z,46.90
2018-09-11T14:37:38.742Z,46.20
2018-09-11T14:40:06.916Z,46.20
2018-09-11T14:42:35.113Z,46.20
2018-09-11T14:45:03.326Z,46.40
2018-09-11T14:47:36.824Z,46.40
2018-09-11T14:50:05.032Z,46.40
2018-09-11T14:52:33.232Z,46.40
2018-09-11T14:55:01.351Z,46.50
2018-09-11T14:57:29.537Z,46.50
2018-09-11T14:59:57.593Z,46.50
2018-09-11T15:02:25.705Z,46.40
2018-09-11T15:04:53.836Z,46.50
2018-09-11T15:07:21.953Z,46.50
2018-09-11T15:09:50.088Z,46.50
2018-09-11T15:12:18.221Z,46.60
2018-09-11T15:14:46.400Z,46.40
2018-09-11T15:17:14.856Z,46.30
2018-09-11T15:19:43.037Z,46.30
2018-09-11T15:22:12.388Z,46.30
2018-09-11T15:24:40.489Z,46.40
2018-09-11T15:27:08.622Z,46.50
2018-09-11T15:29:36.943Z,46.50
2018-09-11T15:32:05.084Z,46.30
2018-09-11T15:34:33.313Z,46.30
2018-09-11T15:37:01.476Z,46.50
2018-09-11T15:39:29.856Z,46.50
2018-09-11T15:41:58.295Z,46.60
2018-09-11T15:44:26.952Z,46.60
2018-09-11T15:46:55.371Z,46.70
2018-09-11T15:49:23.574Z,46.70
2018-09-11T15:51:51.785Z,46.80
2018-09-11T15:54:19.891Z,46.90
2018-09-11T15:56:48.067Z,46.90
2018-09-11T15:59:16.192Z,46.60
2018-09-11T16:01:44.309Z,46.90
2018-09-11T16:04:12.431Z,46.90
2018-09-11T16:06:40.522Z,47.00
2018-09-11T16:09:10.424Z,47.10
2018-09-11T16:11:38.595Z,47.10
2018-09-11T16:14:06.910Z,47.00
2018-09-11T16:16:35.358Z,47.10
2018-09-11T16:19:03.525Z,47.10
2018-09-11T16:21:31.689Z,47.20
2018-09-11T16:24:00.204Z,47.20
2018-09-11T16:26:28.344Z,47.20
2018-09-11T16:28:56.468Z,47.30
2018-09-11T16:31:24.592Z,47.40
2018-09-11T16:33:52.773Z,47.50
2018-09-11T16:36:20.941Z,47.50
2018-09-11T16:38:49.175Z,47.40
2018-09-11T16:41:17.292Z,47.50
2018-09-11T16:43:45.407Z,47.60
2018-09-11T16:46:13.549Z,47.60
2018-09-11T16:48:41.688Z,47.50
2018-09-11T16:51:09.812Z,47.60
2018-09-11T16:53:38.026Z,47.70
2018-09-11T16:56:06.131Z,47.70
2018-09-11T16:58:34.199Z,47.70
2018-09-11T17:01:02.403Z,47.70
2018-09-11T17:03:30.550Z,47.70
2018-09-11T17:05:58.691Z,47.70
2018-09-11T17:08:26.792Z,47.70
2018-09-11T17:10:54.973Z,47.80
2018-09-11T17:13:23.104Z,47.80
2018-09-11T17:15:51.368Z,47.90
2018-09-11T17:18:19.467Z,47.80
2018-09-11T17:20:47.665Z,47.90
2018-09-11T17:23:15.792Z,47.90
2018-09-11T17:25:44.013Z,47.80
2018-09-11T17:28:12.365Z,47.90
2018-09-11T17:30:40.463Z,48.10
2018-09-11T17:33:08.558Z,48.00
2018-09-11T17:35:36.664Z,48.00
2018-09-11T17:38:04.794Z,48.00
2018-09-11T17:40:32.911Z,48.00
2018-09-11T17:43:01.145Z,48.10
2018-09-11T17:45:29.330Z,48.10
2018-09-11T17:47:57.432Z,48.10
2018-09-11T17:50:25.528Z,48.20
2018-09-11T17:52:53.668Z,48.30
2018-09-11T17:55:21.871Z,48.20
2018-09-11T17:57:50.138Z,48.20
2018-09-11T18:00:18.249Z,48.20
2018-09-11T18:02:46.439Z,48.20
2018-09-11T18:05:15.169Z,48.20
2018-09-11T18:07:43.260Z,55.20
2018-09-11T18:10:11.356Z,58.30
2018-09-11T18:12:39.478Z,59.50
2018-09-11T18:15:07.575Z,59.10
2018-09-11T18:17:35.676Z,60.60
2018-09-11T18:20:04.031Z,61.60
2018-09-11T18:22:32.104Z,61.30
2018-09-11T18:25:00.197Z,61.00
2018-09-11T18:27:28.373Z,62.30
2018-09-11T18:29:56.762Z,62.60
2018-09-11T18:32:24.972Z,62.60
2018-09-11T18:34:53.263Z,61.70
2018-09-11T18:37:21.521Z,62.40
2018-09-11T18:39:49.583Z,62.90
2018-09-11T18:42:17.729Z,62.70
2018-09-11T18:44:45.874Z,62.90
2018-09-11T18:47:13.977Z,64.00
2018-09-11T18:49:42.099Z,64.10
2018-09-11T18:52:10.251Z,64.60
2018-09-11T18:54:38.383Z,65.30
2018-09-11T18:57:06.539Z,65.10
2018-09-11T18:59:34.705Z,65.20
2018-09-11T19:02:02.840Z,65.60
2018-09-11T19:04:30.941Z,65.40
2018-09-11T19:06:59.068Z,64.70
2018-09-11T19:09:27.260Z,64.90
2018-09-11T19:11:55.395Z,65.60
2018-09-11T19:14:23.568Z,65.80
2018-09-11T19:16:51.682Z,66.60
2018-09-11T19:19:19.849Z,66.50
2018-09-11T19:21:47.990Z,66.30
2018-09-11T19:24:16.163Z,66.50
2018-09-11T19:26:44.342Z,66.50
2018-09-11T19:29:12.427Z,65.80
2018-09-11T19:31:40.613Z,66.80
2018-09-11T19:34:08.793Z,67.10
2018-09-11T19:36:36.926Z,66.90
2018-09-11T19:39:06.537Z,66.60
2018-09-11T19:41:34.683Z,66.20
2018-09-11T19:44:02.904Z,65.60
2018-09-11T19:46:31.046Z,66.10
2018-09-11T19:48:59.251Z,67.20
2018-09-11T19:51:27.398Z,67.70
2018-09-11T19:53:55.508Z,67.90
2018-09-11T19:56:23.621Z,67.30
2018-09-11T19:58:51.770Z,66.90
2018-09-11T20:01:19.812Z,66.40
2018-09-11T20:03:47.962Z,65.80
2018-09-11T20:06:16.172Z,65.60
2018-09-11T20:08:44.289Z,65.10
2018-09-11T20:11:12.524Z,64.70
2018-09-11T20:13:40.663Z,64.80
2018-09-11T20:16:08.913Z,65.70
2018-09-11T20:18:37.092Z,63.90
2018-09-11T20:21:05.179Z,61.80
2018-09-11T20:23:33.287Z,60.20
2018-09-11T20:26:01.383Z,59.00
2018-09-11T20:28:29.628Z,58.30
2018-09-11T20:30:57.763Z,57.90
2018-09-11T20:33:25.880Z,57.40
2018-09-11T20:35:54.002Z,57.00
2018-09-11T20:38:22.194Z,56.70
2018-09-11T20:40:50.300Z,56.40
2018-09-11T20:43:18.446Z,56.30
2018-09-11T20:45:46.542Z,56.10
2018-09-11T20:48:14.700Z,56.00
2018-09-11T20:50:42.789Z,55.80
2018-09-11T20:53:10.911Z,55.50
2018-09-11T20:55:39.008Z,55.40
2018-09-11T20:58:07.199Z,55.30
2018-09-11T21:00:35.283Z,55.00
2018-09-11T21:03:03.390Z,55.00
2018-09-11T21:05:31.475Z,54.80
2018-09-11T21:07:59.612Z,55.30
2018-09-11T21:10:27.724Z,54.60
2018-09-11T21:12:55.880Z,54.50
2018-09-11T21:15:23.966Z,54.50
2018-09-11T21:17:52.104Z,54.40
2018-09-11T21:20:20.272Z,54.40
2018-09-11T21:22:48.382Z,54.20
2018-09-11T21:25:16.507Z,54.10
2018-09-11T21:27:44.603Z,54.20
2018-09-11T21:30:13.507Z,54.10
2018-09-11T21:32:41.601Z,54.00
2018-09-11T21:35:09.693Z,54.00
2018-09-11T21:37:37.807Z,53.90
2018-09-11T21:40:12.480Z,53.70
2018-09-11T21:42:40.569Z,53.70
2018-09-11T21:45:08.815Z,53.70
2018-09-11T21:47:36.920Z,53.60
2018-09-11T21:50:05.120Z,53.60
2018-09-11T21:52:33.206Z,53.50
2018-09-11T21:55:01.315Z,53.40
2018-09-11T21:57:29.416Z,53.40
2018-09-11T21:59:57.571Z,53.50
2018-09-11T22:02:25.628Z,53.50
2018-09-11T22:04:53.724Z,53.30
2018-09-11T22:07:22.096Z,53.30
2018-09-11T22:09:50.220Z,53.20
2018-09-11T22:12:18.309Z,53.10
2018-09-11T22:14:46.412Z,53.10
2018-09-11T22:17:14.508Z,53.10
2018-09-11T22:19:42.603Z,53.10
2018-09-11T22:22:10.692Z,53.10
2018-09-11T22:24:38.827Z,53.00
2018-09-11T22:27:06.912Z,53.10
2018-09-11T22:29:35.082Z,53.00
2018-09-11T22:32:03.171Z,53.00
2018-09-11T22:34:31.279Z,52.90
2018-09-11T22:36:59.449Z,52.80
2018-09-11T22:39:27.507Z,52.80
2018-09-11T22:41:55.649Z,52.70
2018-09-11T22:44:23.779Z,52.80
2018-09-11T22:46:51.909Z,52.80
2018-09-11T22:49:20.024Z,52.70
2018-09-11T22:51:48.107Z,52.80
2018-09-11T22:54:16.207Z,52.90
2018-09-11T22:56:44.296Z,53.00
2018-09-11T22:59:12.407Z,52.90
2018-09-11T23:01:40.496Z,53.10
2018-09-11T23:04:08.635Z,53.00
2018-09-11T23:06:36.782Z,53.20
2018-09-11T23:09:07.227Z,53.30
2018-09-11T23:11:35.330Z,53.30
2018-09-11T23:14:03.410Z,53.20
2018-09-11T23:16:31.524Z,53.20
2018-09-11T23:18:59.611Z,53.20
2018-09-11T23:21:27.715Z,53.20
2018-09-11T23:23:55.861Z,53.20
2018-09-11T23:26:23.968Z,53.20
2018-09-11T23:28:52.168Z,53.10
2018-09-11T23:31:20.264Z,53.20
2018-09-11T23:33:48.372Z,53.10
2018-09-11T23:36:16.478Z,53.10
2018-09-11T23:38:44.588Z,52.90
2018-09-11T23:41:12.708Z,52.70
2018-09-11T23:43:40.827Z,52.60
2018-09-11T23:46:08.934Z,52.60
2018-09-11T23:48:37.051Z,52.50
2018-09-11T23:51:05.173Z,52.60
2018-09-11T23:53:33.262Z,52.40
2018-09-11T23:56:01.377Z,52.40
2018-09-11T23:58:29.609Z,52.40
